Impacts METAR Board
IDs:

KCLE - Cleveland/Hopkins In, OH, US

Updated at: 1800 UTC 24 Jun 2018
Potential Impact None Slight Moderate High
Time 24/06Z 24/07Z 24/08Z 24/09Z 24/10Z 24/11Z 24/12Z 24/13Z 24/14Z 24/15Z 24/16Z 24/17Z 24/18Z
Temp69 68 68 69 68 69 70 70 72 73 77 79 77
Dewpt66 65 65 65 65 65 66 66 63 61 62 63 66
Altim29.82 29.82 29.82 29.82 29.83 29.84 29.85 29.86 29.87 29.89 29.90 29.90 29.89
VIS10 10 10 10 10 10 10 10 10 10 10 10 10
CIG80 80 55 80 90 80 45 14 100 100 110 65 50
CoverBKNOVCOVCOVCOVCOVCOVCOVCOVCOVCBKNBKNBKN
FltCatVFRVFRVFRVFRVFRVFRVFRMVFRVFRVFRVFRVFRVFR
WX--------------------------
WDir210230210210200210230250270260250260300
WSpd6 5 4 5 6 6 8 7 10 10 9 11 10
WGst-- -- -- -- -- -- -- -- -- -- -- -- --
Raw hourly METARs
KCLE 240551Z 21006KT 10SM BKN080 21/19 A2982 RMK AO2 SLP091 T02060189 10222 20206 53004 $
KCLE 240651Z 23005KT 10SM OVC080 20/18 A2982 RMK AO2 SLP091 T02000183 $
KCLE 240751Z 21004KT 10SM SCT049 BKN055 OVC080 20/18 A2982 RMK AO2 SLP094 T02000183 $
KCLE 240851Z 21005KT 10SM OVC080 21/18 A2982 RMK AO2 SLP093 T02060183 50002 $
KCLE 240951Z 20006KT 10SM SCT050 OVC090 20/18 A2983 RMK AO2 SLP096 T02000183 $
KCLE 241051Z 21006KT 10SM OVC080 21/18 A2984 RMK AO2 SLP100 T02060183 $
KCLE 241151Z 23008KT 10SM BKN045 BKN055 OVC095 21/19 A2985 RMK AO2 SLP104 70017 T02110189 10211 20200 53009 $
KCLE 241251Z 25007KT 10SM BKN014 OVC019 21/19 A2986 RMK AO2 SLP107 T02110189 $
KCLE 241351Z 27010KT 10SM SCT014 SCT020 OVC100 22/17 A2987 RMK AO2 SLP110 T02220172 $
KCLE 241451Z 26010KT 10SM OVC100 23/16 A2989 RMK AO2 SLP117 T02280161 53011 $
KCLE 241551Z 25009KT 10SM FEW045 BKN110 BKN250 25/17 A2990 RMK AO2 SLP120 T02500167 $
KCLE 241651Z 26011KT 10SM SCT040 SCT050 BKN065 26/17 A2990 RMK AO2 SLP120 T02610172 $
KCLE 241751Z 30010KT 10SM FEW029 FEW038 BKN050 BKN250 25/19 A2989 RMK AO2 RAB27E39 SLP115 P0002 60002 T02500189 10267 20211 58001 $



Page loaded:  18:08 UTC  |   11:08 AM Pacific  |   12:08 PM Mountain  |   01:08 PM Central  |   02:08 PM Eastern

 

ADVISORIES

FORECASTS

FORECASTS

OBSERVATIONS

USER TOOLS

ABOUT US